Time;durP1;ratioP1;P1;durP2;ratioP2;P2;SDS_P1;SDS_P2;PMS_P1;PMS_P2;Temp;Humidity;BMP_temperature;BMP_pressure;BME280_temperature;BME280_humidity;BME280_pressure;Samples;Min_cycle;Max_cycle;Signal;HPM_P1;HPM_P2
2021/06/13 00:01:47;260407.00;0.87;449.85;0.00;0.00;0.62;;;;;23.10;1.00;;;;;;2568312;56;1172;-87
2021/06/13 00:04:14;80179.00;0.27;139.35;0.00;0.00;0.62;;;;;23.10;1.00;;;;;;2567984;56;1106;-87
2021/06/13 00:06:41;484818.00;1.62;835.69;0.00;0.00;0.62;;;;;23.10;1.00;;;;;;2567817;56;1685;-87
2021/06/13 00:09:07;179417.00;0.60;310.49;0.00;0.00;0.62;;;;;23.20;1.00;;;;;;2565337;56;1337;-86
2021/06/13 00:11:34;228100.00;0.76;394.28;0.00;0.00;0.62;;;;;23.20;1.00;;;;;;2565909;56;1954;-87
2021/06/13 00:14:01;138752.00;0.46;240.42;0.00;0.00;0.62;;;;;23.10;1.00;;;;;;2565961;56;1093;-87
2021/06/13 00:16:29;361067.00;1.20;622.88;0.00;0.00;0.62;;;;;23.10;1.00;;;;;;2568392;56;1765;-86
2021/06/13 00:18:55;205720.00;0.69;355.77;0.00;0.00;0.62;;;;;23.10;1.00;;;;;;2565746;56;1243;-86
2021/06/13 00:21:22;148084.00;0.49;256.51;0.00;0.00;0.62;;;;;23.00;1.00;;;;;;2565404;56;1285;-87
2021/06/13 00:23:48;244772.00;0.82;422.96;0.00;0.00;0.62;;;;;23.10;1.00;;;;;;2567604;56;1703;-87
2021/06/13 00:26:16;25676.00;0.09;45.10;0.00;0.00;0.62;;;;;23.10;1.00;;;;;;2565260;56;1124;-86
2021/06/13 00:28:42;367997.00;1.23;634.79;0.00;0.00;0.62;;;;;23.00;1.00;;;;;;2566975;56;1624;-87
2021/06/13 00:31:09;304302.00;1.01;525.32;60599.00;0.20;105.51;;;;;23.10;1.00;;;;;;2566545;56;1673;-88
2021/06/13 00:33:37;262487.00;0.87;453.43;0.00;0.00;0.62;;;;;23.10;1.00;;;;;;2566181;56;1966;-86
2021/06/13 00:36:04;435698.00;1.45;751.18;62480.00;0.21;108.76;;;;;23.20;1.00;;;;;;2565744;56;1530;-87
2021/06/13 00:38:31;450193.00;1.50;776.11;0.00;0.00;0.62;;;;;23.10;1.00;;;;;;2565343;56;1607;-87
2021/06/13 00:40:58;293948.00;0.98;507.52;28950.00;0.10;50.77;;;;;23.20;1.00;;;;;;2565748;56;1752;-87
2021/06/13 00:43:24;711094.00;2.37;1226.48;121149.00;0.40;210.06;;;;;23.10;1.00;;;;;;2567073;56;1187;-90
2021/06/13 00:45:51;583014.00;1.94;1004.90;27573.00;0.09;48.38;;;;;23.20;1.00;;;;;;2568488;56;1591;-90
2021/06/13 00:48:18;844290.00;2.81;1458.48;133282.00;0.44;230.99;;;;;23.20;1.00;;;;;;2566801;56;1615;-86
2021/06/13 00:50:48;261113.00;0.87;451.06;0.00;0.00;0.62;;;;;23.10;1.00;;;;;;2565669;56;1117;-87
2021/06/13 00:53:15;426473.00;1.42;735.32;150704.00;0.50;261.02;;;;;23.10;1.00;;;;;;2565610;56;1967;-86
2021/06/13 00:55:42;354480.00;1.18;611.56;0.00;0.00;0.62;;;;;23.10;1.00;;;;;;2565353;56;1106;-86
2021/06/13 00:58:09;345557.00;1.15;596.22;0.00;0.00;0.62;;;;;23.10;1.00;;;;;;2565577;56;1693;-87
2021/06/13 01:00:38;302897.00;1.01;522.90;0.00;0.00;0.62;;;;;23.20;1.00;;;;;;2565864;56;1738;-86
2021/06/13 01:03:06;317284.00;1.06;547.63;0.00;0.00;0.62;;;;;23.10;1.00;;;;;;2565904;56;1708;-86
2021/06/13 01:05:33;301981.00;1.01;521.33;61416.00;0.20;106.92;;;;;23.10;1.00;;;;;;2565727;56;1645;-86
2021/06/13 01:08:13;260559.00;0.87;450.11;31759.00;0.11;55.63;;;;;23.10;1.00;;;;;;2565807;56;1250;-86
2021/06/13 01:10:51;159958.00;0.53;276.97;0.00;0.00;0.62;;;;;23.10;1.00;;;;;;2565706;56;1152;-87
2021/06/13 01:13:26;217570.00;0.73;376.16;0.00;0.00;0.62;;;;;23.10;1.00;;;;;;2565895;56;1961;-87
2021/06/13 01:16:00;299563.00;1.00;517.17;0.00;0.00;0.62;;;;;23.00;1.00;;;;;;2565764;56;1632;-86
2021/06/13 01:18:32;171378.00;0.57;296.64;0.00;0.00;0.62;;;;;22.70;1.00;;;;;;2565776;56;1566;-86
2021/06/13 01:21:06;434529.00;1.45;749.17;45596.00;0.15;79.57;;;;;22.90;1.00;;;;;;2563933;56;1673;-87
2021/06/13 01:24:04;210075.00;0.70;363.26;0.00;0.00;0.62;;;;;23.10;1.00;;;;;;2563888;56;1184;-86
2021/06/13 01:27:19;149044880.00;496.82;134210496.00;78922.00;0.26;137.18;;;;;23.10;1.00;;;;;;2567482;56;1179;-87
2021/06/13 01:29:48;130641.00;0.44;226.43;0.00;0.00;0.62;;;;;23.00;1.00;;;;;;2565744;56;1607;-87
2021/06/13 01:32:19;0.00;0.00;0.62;0.00;0.00;0.62;;;;;23.00;1.00;;;;;;2568503;56;1905;-87
2021/06/13 01:34:49;65983.00;0.22;114.82;0.00;0.00;0.62;;;;;22.80;1.00;;;;;;2559380;56;967;-87
2021/06/13 01:37:21;42953.00;0.14;75.00;0.00;0.00;0.62;;;;;22.80;1.00;;;;;;2559509;56;1189;-88
2021/06/13 01:39:52;57535.00;0.19;100.22;0.00;0.00;0.62;;;;;22.80;1.00;;;;;;2568480;56;1380;-87
2021/06/13 01:42:19;0.00;0.00;0.62;0.00;0.00;0.62;;;;;22.70;1.00;;;;;;2567216;56;1216;-87
2021/06/13 01:44:54;89112.00;0.30;154.77;0.00;0.00;0.62;;;;;22.70;1.00;;;;;;2556543;56;1169;-87
2021/06/13 01:47:21;71912.00;0.24;125.06;0.00;0.00;0.62;;;;;22.70;1.00;;;;;;2561091;56;1348;-87
2021/06/13 01:49:49;8023.00;0.03;14.52;0.00;0.00;0.62;;;;;22.60;1.00;;;;;;2557950;56;1352;-87
2021/06/13 01:52:15;84426.00;0.28;146.68;0.00;0.00;0.62;;;;;22.50;1.00;;;;;;2554197;56;1969;-85
2021/06/13 01:54:43;387799.00;1.29;668.83;87408.00;0.29;151.83;;;;;22.40;1.00;;;;;;2563996;56;1171;-86
2021/06/13 01:57:10;153504.00;0.51;265.85;0.00;0.00;0.62;;;;;22.40;1.00;;;;;;2565912;56;1094;-86
2021/06/13 01:59:41;168843.00;0.56;292.27;0.00;0.00;0.62;;;;;22.30;1.00;;;;;;2552802;56;1421;-85
2021/06/13 02:02:11;218651.00;0.73;378.02;0.00;0.00;0.62;;;;;22.30;1.00;;;;;;2553030;56;1165;-85
2021/06/13 02:04:39;29119.00;0.10;51.06;0.00;0.00;0.62;;;;;22.40;1.00;;;;;;2556916;56;1217;-86
2021/06/13 02:07:07;170019.00;0.57;294.30;0.00;0.00;0.62;;;;;22.40;1.00;;;;;;2567591;56;1173;-87
2021/06/13 02:09:35;7702.00;0.03;13.97;0.00;0.00;0.62;;;;;22.50;1.00;;;;;;2567798;56;1406;-86
2021/06/13 02:12:05;87079.00;0.29;151.26;14861.00;0.05;26.37;;;;;22.40;1.00;;;;;;2567419;56;1946;-86
2021/06/13 02:14:32;225341.00;0.75;389.53;22844.00;0.08;40.19;;;;;22.40;1.00;;;;;;2554754;56;1157;-87
2021/06/13 02:17:01;132649.00;0.44;229.90;0.00;0.00;0.62;;;;;22.30;1.00;;;;;;2566918;56;1102;-86
2021/06/13 02:19:31;209510.00;0.70;362.29;38073.00;0.13;66.55;;;;;22.20;1.00;;;;;;2553599;56;1324;-86
2021/06/13 02:22:00;111427.00;0.37;193.29;0.00;0.00;0.62;;;;;22.00;1.00;;;;;;2566660;56;1059;-86
2021/06/13 02:24:31;97617.00;0.33;169.46;0.00;0.00;0.62;;;;;21.90;1.00;;;;;;2557916;56;1165;-86
2021/06/13 02:26:58;359556.00;1.20;620.29;21415.00;0.07;37.72;;;;;21.80;1.00;;;;;;2566021;56;1053;-86
2021/06/13 02:29:26;292161.00;0.97;504.44;56570.00;0.19;98.55;;;;;21.70;1.00;;;;;;2563855;56;1339;-85
2021/06/13 02:31:56;67420.00;0.22;117.30;0.00;0.00;0.62;;;;;21.60;1.00;;;;;;2556194;56;1938;-85
2021/06/13 02:34:24;130739.00;0.44;226.60;0.00;0.00;0.62;;;;;21.40;1.00;;;;;;2557820;56;1200;-88
2021/06/13 02:36:56;198765.00;0.66;343.80;34538.00;0.12;60.44;;;;;21.30;1.00;;;;;;2564746;56;1126;-85
2021/06/13 02:39:22;0.00;0.00;0.62;0.00;0.00;0.62;;;;;21.30;1.00;;;;;;2559234;56;1451;-86
2021/06/13 02:41:50;140390.00;0.47;243.24;0.00;0.00;0.62;;;;;21.20;1.00;;;;;;2556853;56;1160;-86
2021/06/13 02:44:17;132720.00;0.44;230.02;0.00;0.00;0.62;;;;;21.30;1.00;;;;;;2554645;56;1201;-89
2021/06/13 02:46:44;193260.00;0.64;334.32;0.00;0.00;0.62;;;;;21.30;1.00;;;;;;2547514;56;1029;-85
2021/06/13 02:49:12;99962.00;0.33;173.51;0.00;0.00;0.62;;;;;21.40;1.00;;;;;;2548457;56;1364;-85
2021/06/13 02:51:49;0.00;0.00;0.62;0.00;0.00;0.62;;;;;21.40;1.00;;;;;;2538993;56;1197;-85
2021/06/13 02:54:19;223951.00;0.75;387.14;22291.00;0.07;39.24;;;;;21.40;1.00;;;;;;2530787;56;1331;-85
2021/06/13 02:56:54;243251.00;0.81;420.34;0.00;0.00;0.62;;;;;21.50;1.00;;;;;;2530615;56;1166;-86
2021/06/13 02:59:29;122528.00;0.41;212.44;0.00;0.00;0.62;;;;;21.50;1.00;;;;;;2531231;56;1424;-87
2021/06/13 03:01:58;226344.00;0.75;391.26;0.00;0.00;0.62;;;;;21.50;1.00;;;;;;2541014;56;1245;-86
2021/06/13 03:04:25;243729.00;0.81;421.17;0.00;0.00;0.62;;;;;21.60;1.00;;;;;;2541313;56;1182;-86
2021/06/13 03:06:56;353856.00;1.18;610.49;64780.00;0.22;112.74;;;;;21.60;1.00;;;;;;2540856;56;1162;-85
2021/06/13 03:09:25;213459.00;0.71;369.09;0.00;0.00;0.62;;;;;21.70;1.00;;;;;;2540902;56;1438;-86
2021/06/13 03:11:53;198571.00;0.66;343.46;0.00;0.00;0.62;;;;;21.60;1.00;;;;;;2549356;56;1967;-86
2021/06/13 03:14:20;63927.00;0.21;111.26;0.00;0.00;0.62;;;;;21.60;1.00;;;;;;2548958;56;1177;-86
2021/06/13 03:16:48;140503.00;0.47;243.44;0.00;0.00;0.62;;;;;21.60;1.00;;;;;;2546723;56;1197;-85
2021/06/13 03:19:17;141106.00;0.47;244.48;0.00;0.00;0.62;;;;;21.60;1.00;;;;;;2546142;56;1630;-85
2021/06/13 03:21:47;0.00;0.00;0.62;0.00;0.00;0.62;;;;;21.60;1.00;;;;;;2536434;56;1178;-86
2021/06/13 03:24:15;130276.00;0.43;225.81;0.00;0.00;0.62;;;;;21.50;1.00;;;;;;2536750;56;1191;-86
2021/06/13 03:26:44;95217.00;0.32;165.32;0.00;0.00;0.62;;;;;21.60;1.00;;;;;;2539324;56;1108;-85
2021/06/13 03:29:11;191701.00;0.64;331.64;0.00;0.00;0.62;;;;;21.50;1.00;;;;;;2559468;56;1313;-85
2021/06/13 03:31:38;91287.00;0.30;158.53;0.00;0.00;0.62;;;;;21.80;1.00;;;;;;2553869;56;1114;-86
2021/06/13 03:34:07;0.00;0.00;0.62;0.00;0.00;0.62;;;;;21.80;1.00;;;;;;2541399;56;1922;-86
2021/06/13 03:36:35;43048.00;0.14;75.16;0.00;0.00;0.62;;;;;21.50;1.00;;;;;;2545080;56;1158;-87
2021/06/13 03:39:03;148910.00;0.50;257.93;0.00;0.00;0.62;;;;;21.40;1.00;;;;;;2536717;56;1335;-90
2021/06/13 03:41:31;161479.00;0.54;279.59;0.00;0.00;0.62;;;;;21.60;1.00;;;;;;2537598;56;1122;-90
2021/06/13 03:44:02;430283.00;1.43;741.87;122231.00;0.41;211.93;;;;;21.60;1.00;;;;;;2525980;56;1107;-87
2021/06/13 03:46:29;183606.00;0.61;317.70;0.00;0.00;0.62;;;;;21.50;1.00;;;;;;2529676;56;1263;-87
2021/06/13 03:48:58;170488.00;0.57;295.11;0.00;0.00;0.62;;;;;21.50;1.00;;;;;;2526352;56;1342;-86
2021/06/13 03:51:27;97261.00;0.32;168.84;0.00;0.00;0.62;;;;;21.80;1.00;;;;;;2539615;56;1102;-86
2021/06/13 03:53:58;143200.00;0.48;248.09;0.00;0.00;0.62;;;;;21.80;1.00;;;;;;2538108;56;1967;-86
2021/06/13 03:56:30;269139.00;0.90;464.86;0.00;0.00;0.62;;;;;21.70;1.00;;;;;;2548331;56;1244;-86
2021/06/13 03:58:58;127115.00;0.42;220.35;0.00;0.00;0.62;;;;;21.80;1.00;;;;;;2565208;56;1394;-86
2021/06/13 04:01:27;401727.00;1.34;692.77;0.00;0.00;0.62;;;;;21.60;1.00;;;;;;2551447;56;1218;-86
2021/06/13 04:03:55;203351.00;0.68;351.69;0.00;0.00;0.62;;;;;21.80;1.00;;;;;;2551007;56;1165;-86
2021/06/13 04:06:24;329951.00;1.10;569.40;41464.00;0.14;72.42;;;;;21.60;1.00;;;;;;2563721;56;1180;-86
2021/06/13 04:08:53;176107.00;0.59;304.79;0.00;0.00;0.62;;;;;21.70;1.00;;;;;;2555720;56;1375;-86
2021/06/13 04:11:22;21495.00;0.07;37.86;0.00;0.00;0.62;;;;;21.70;1.00;;;;;;2565129;56;1168;-86
2021/06/13 04:13:50;0.00;0.00;0.62;0.00;0.00;0.62;;;;;21.70;1.00;;;;;;2560226;56;1936;-87
2021/06/13 04:16:20;46714.00;0.16;81.50;0.00;0.00;0.62;;;;;21.80;1.00;;;;;;2558481;56;1071;-86
2021/06/13 04:18:49;342714.00;1.14;591.34;81592.00;0.27;141.79;;;;;21.90;1.00;;;;;;2550476;56;1329;-86
2021/06/13 04:21:17;117949.00;0.39;204.54;0.00;0.00;0.62;;;;;21.90;1.00;;;;;;2551130;56;1186;-86
2021/06/13 04:23:46;59073.00;0.20;102.87;0.00;0.00;0.62;;;;;22.00;1.00;;;;;;2555403;56;1217;-86
2021/06/13 04:26:14;94512.00;0.32;164.10;26614.00;0.09;46.72;;;;;21.90;1.00;;;;;;2561872;56;1236;-86
2021/06/13 04:28:41;245306.00;0.82;423.88;0.00;0.00;0.62;;;;;21.90;1.00;;;;;;2554362;56;1367;-86
2021/06/13 04:31:12;213497.00;0.71;369.15;517.00;0.00;1.52;;;;;21.90;1.00;;;;;;2547852;56;1220;-86
2021/06/13 04:33:41;0.00;0.00;0.62;0.00;0.00;0.62;;;;;21.90;1.00;;;;;;2554653;56;1909;-86
2021/06/13 04:36:10;96805.00;0.32;168.06;0.00;0.00;0.62;;;;;21.80;1.00;;;;;;2561597;56;1108;-86
2021/06/13 04:38:38;44466.00;0.15;77.61;0.00;0.00;0.62;;;;;21.70;1.00;;;;;;2559498;56;1395;-86
2021/06/13 04:41:07;57.00;0.00;0.72;0.00;0.00;0.62;;;;;21.70;1.00;;;;;;2561328;56;1130;-86
2021/06/13 04:43:35;119498.00;0.40;207.22;0.00;0.00;0.62;;;;;21.90;1.00;;;;;;2552237;56;1245;-86
2021/06/13 04:46:02;0.00;0.00;0.62;0.00;0.00;0.62;;;;;21.90;1.00;;;;;;2552927;56;1034;-86
2021/06/13 04:48:29;226553.00;0.76;391.62;33464.00;0.11;58.58;;;;;22.00;1.00;;;;;;2545379;56;1437;-87
2021/06/13 04:56:27;0.00;0.00;0.62;0.00;0.00;0.62;;;;;22.20;1.00;;;;;;2571287;56;1109;-86
2021/06/13 04:58:56;32968.00;0.11;57.72;0.00;0.00;0.62;;;;;22.20;1.00;;;;;;2569792;55;1367;-86
2021/06/13 05:01:23;66625.00;0.22;115.93;0.00;0.00;0.62;;;;;22.40;1.00;;;;;;2574986;55;1133;-85
2021/06/13 05:03:51;10202.00;0.03;18.30;0.00;0.00;0.62;;;;;22.40;1.00;;;;;;2565744;55;1216;-87
2021/06/13 05:06:18;104104.00;0.35;180.66;0.00;0.00;0.62;;;;;22.30;1.00;;;;;;2574872;55;1204;-87
2021/06/13 05:08:45;135727.00;0.45;235.20;0.00;0.00;0.62;;;;;22.30;1.00;;;;;;2575876;55;1347;-87
2021/06/13 05:11:12;522042.00;1.74;899.78;34065.00;0.11;59.62;;;;;22.40;1.00;;;;;;2566900;55;1216;-86
2021/06/13 05:13:40;197948.00;0.66;342.39;0.00;0.00;0.62;;;;;22.50;1.00;;;;;;2575887;55;1939;-86
2021/06/13 05:16:09;230439.00;0.77;398.30;0.00;0.00;0.62;;;;;22.30;1.00;;;;;;2570727;55;1074;-86
2021/06/13 05:18:36;251116.00;0.84;433.87;0.00;0.00;0.62;;;;;22.30;1.00;;;;;;2574992;55;1414;-86
2021/06/13 05:21:03;137646.00;0.46;238.51;0.00;0.00;0.62;;;;;22.20;1.00;;;;;;2575439;55;1184;-87
2021/06/13 05:23:31;184544.00;0.62;319.31;0.00;0.00;0.62;;;;;22.30;1.00;;;;;;2573528;56;1232;-86
2021/06/13 05:26:00;193930.00;0.65;335.47;29101.00;0.10;51.03;;;;;22.30;1.00;;;;;;2571878;55;1212;-86
2021/06/13 05:28:27;149820.00;0.50;259.50;0.00;0.00;0.62;;;;;22.70;1.00;;;;;;2571481;55;1418;-86
2021/06/13 05:30:55;281369.00;0.94;485.89;0.00;0.00;0.62;;;;;22.80;1.00;;;;;;2576974;55;1160;-87
2021/06/13 05:33:23;291147.00;0.97;502.70;43359.00;0.14;75.70;;;;;22.90;1.00;;;;;;2576962;55;1922;-86
2021/06/13 05:35:51;133236.00;0.44;230.91;0.00;0.00;0.62;;;;;23.00;1.00;;;;;;2576775;55;1226;-86
2021/06/13 05:38:19;168107.00;0.56;291.01;0.00;0.00;0.62;;;;;23.20;1.00;;;;;;2567781;55;1396;-86
2021/06/13 05:40:46;164087.00;0.55;284.08;49770.00;0.17;86.79;;;;;23.70;1.00;;;;;;2566526;55;1153;-86
2021/06/13 05:43:14;162018.00;0.54;280.52;0.00;0.00;0.62;;;;;25.10;1.00;;;;;;2566329;56;1097;-86
2021/06/13 05:45:41;102841.00;0.34;178.48;0.00;0.00;0.62;;;;;26.90;1.00;;;;;;2566915;56;1161;-85
2021/06/13 05:48:10;216663.00;0.72;374.60;0.00;0.00;0.62;;;;;28.40;1.00;;;;;;2566725;56;1431;-89
2021/06/13 05:50:39;170121.00;0.57;294.48;0.00;0.00;0.62;;;;;29.70;1.00;;;;;;2562053;56;1189;-88
2021/06/13 05:53:08;147660.00;0.49;255.77;0.00;0.00;0.62;;;;;30.60;1.00;;;;;;2556002;56;1910;-88
2021/06/13 05:55:36;386475.00;1.29;666.56;77544.00;0.26;134.79;;;;;31.20;1.00;;;;;;2556317;56;1145;-88
2021/06/13 05:58:04;369603.00;1.23;637.55;31450.00;0.10;55.09;;;;;31.90;1.00;;;;;;2546134;56;1284;-89
2021/06/13 06:00:33;258113.00;0.86;445.90;0.00;0.00;0.62;;;;;32.40;1.00;;;;;;2550997;56;942;-88
2021/06/13 06:03:01;109219.00;0.36;189.48;0.00;0.00;0.62;;;;;31.40;1.00;;;;;;2545804;56;1182;-88
2021/06/13 06:05:30;135266.00;0.45;234.41;0.00;0.00;0.62;;;;;32.00;1.00;;;;;;2551124;56;1079;-88
2021/06/13 06:07:59;207514.00;0.69;358.86;66577.00;0.22;115.85;;;;;32.10;1.00;;;;;;2552480;56;1384;-90
2021/06/13 06:10:29;469772.00;1.57;809.80;137982.00;0.46;239.09;;;;;31.70;1.00;;;;;;2553252;56;1143;-86
2021/06/13 06:12:57;313807.00;1.05;541.65;47797.00;0.16;83.38;;;;;32.30;1.00;;;;;;2559448;56;1934;-87
2021/06/13 06:15:26;283002.00;0.94;488.70;56888.00;0.19;99.10;;;;;33.40;1.00;;;;;;2552751;56;1086;-86
2021/06/13 06:17:55;345159.00;1.15;595.54;77744.00;0.26;135.14;;;;;34.10;1.00;;;;;;2552744;56;1359;-86
2021/06/13 06:20:24;167734.00;0.56;290.36;53560.00;0.18;93.34;;;;;34.60;1.00;;;;;;2555647;56;1073;-86
2021/06/13 06:22:51;285545.00;0.95;493.07;72021.00;0.24;125.25;;;;;34.80;1.00;;;;;;2555744;56;1153;-86
2021/06/13 06:25:21;431780.00;1.44;744.45;113069.00;0.38;196.13;;;;;34.30;1.00;;;;;;2546753;56;1165;-87
2021/06/13 06:27:50;196892.00;0.66;340.57;59015.00;0.20;102.77;;;;;34.50;1.00;;;;;;2555625;56;1434;-86
2021/06/13 06:30:18;363157.00;1.21;626.48;53859.00;0.18;93.86;;;;;34.10;1.00;;;;;;2551380;56;1113;-86
2021/06/13 06:32:45;258135.00;0.86;445.94;63575.00;0.21;110.66;;;;;33.30;1.00;;;;;;2553279;56;1940;-89
2021/06/13 06:35:14;392092.00;1.31;676.21;70825.00;0.24;123.19;;;;;33.30;1.00;;;;;;2561788;55;943;-89
2021/06/13 06:37:42;380273.00;1.27;655.89;60884.00;0.20;106.00;;;;;33.80;1.00;;;;;;2569826;55;1421;-86
2021/06/13 06:40:13;117961824.00;393.21;66490344.00;131631.00;0.44;228.14;;;;;33.60;1.00;;;;;;2580340;55;1143;-87
2021/06/13 06:42:42;361892.00;1.21;624.30;54955.00;0.18;95.75;;;;;34.90;1.00;;;;;;2564710;56;1200;-85
2021/06/13 06:45:12;433275.00;1.44;747.02;32540.00;0.11;56.98;;;;;34.90;1.00;;;;;;2563047;56;1169;-85
2021/06/13 06:47:42;278326.00;0.93;480.66;54612.00;0.18;95.16;;;;;35.20;1.00;;;;;;2564414;56;1310;-86
2021/06/13 06:50:11;183185.00;0.61;316.97;0.00;0.00;0.62;;;;;35.90;1.00;;;;;;2554120;56;1137;-86
2021/06/13 06:52:38;394151.00;1.31;679.75;0.00;0.00;0.62;;;;;36.30;1.00;;;;;;2555086;56;1122;-86
2021/06/13 06:55:06;593287.00;1.98;1022.63;0.00;0.00;0.62;;;;;35.70;1.00;;;;;;2546125;56;1968;-86
2021/06/13 06:57:34;101873.00;0.34;176.80;0.00;0.00;0.62;;;;;36.00;1.00;;;;;;2549585;56;1340;-87
2021/06/13 07:00:02;200136.00;0.67;346.16;0.00;0.00;0.62;;;;;36.50;1.00;;;;;;2543990;56;1193;-86
2021/06/13 07:02:29;400348.00;1.33;690.40;29593.00;0.10;51.88;;;;;35.70;1.00;;;;;;2561221;56;1176;-86
2021/06/13 07:04:57;193696.00;0.65;335.07;0.00;0.00;0.62;;;;;35.80;1.00;;;;;;2565270;56;1136;-86
2021/06/13 07:07:25;5907.00;0.02;10.86;0.00;0.00;0.62;;;;;36.50;1.00;;;;;;2561850;55;1153;-85
2021/06/13 07:09:52;297372.00;0.99;513.40;0.00;0.00;0.62;;;;;36.10;1.00;;;;;;2576854;55;1384;-86
2021/06/13 07:12:20;261843.00;0.87;452.32;103483.00;0.34;179.58;;;;;35.50;1.00;;;;;;2577221;55;1192;-86
2021/06/13 07:14:47;262300.00;0.87;453.10;73754.00;0.25;128.25;;;;;35.10;1.00;;;;;;2568853;55;1906;-86
2021/06/13 07:17:16;98451.00;0.33;170.90;0.00;0.00;0.62;;;;;34.80;1.00;;;;;;2578036;55;1144;-86
2021/06/13 07:19:43;322511.00;1.08;556.61;0.00;0.00;0.62;;;;;35.60;1.00;;;;;;2562722;56;1326;-86
2021/06/13 07:22:10;220446.00;0.73;381.11;0.00;0.00;0.62;;;;;36.90;1.00;;;;;;2559686;56;1172;-86
2021/06/13 07:24:37;77663.00;0.26;135.00;0.00;0.00;0.62;;;;;37.00;1.00;;;;;;2553932;56;1221;-87
2021/06/13 07:27:04;435087.00;1.45;750.13;0.00;0.00;0.62;;;;;36.90;1.00;;;;;;2557812;56;1144;-86
2021/06/13 07:29:31;202517.00;0.68;350.26;0.00;0.00;0.62;;;;;36.00;1.00;;;;;;2554003;56;1390;-85
2021/06/13 07:31:58;257353.00;0.86;444.60;0.00;0.00;0.62;;;;;35.60;1.00;;;;;;2557869;56;1221;-86
2021/06/13 07:34:26;20586.00;0.07;36.28;0.00;0.00;0.62;;;;;36.30;1.00;;;;;;2558686;56;1948;-85
2021/06/13 07:36:53;60516.00;0.20;105.37;0.00;0.00;0.62;;;;;36.80;1.00;;;;;;2561444;55;1156;-87
2021/06/13 07:39:21;256286.00;0.85;442.76;0.00;0.00;0.62;;;;;36.20;1.00;;;;;;2575979;55;1382;-87
2021/06/13 07:41:49;318699.00;1.06;550.06;57681.00;0.19;100.47;;;;;36.30;1.00;;;;;;2581230;55;1116;-85
2021/06/13 07:44:18;54351.00;0.18;94.71;0.00;0.00;0.62;;;;;35.70;1.00;;;;;;2564433;56;1129;-85
2021/06/13 07:46:45;102706.00;0.34;178.24;0.00;0.00;0.62;;;;;35.30;1.00;;;;;;2567729;55;1172;-89
2021/06/13 07:49:12;530563.00;1.77;914.46;0.00;0.00;0.62;;;;;35.00;1.00;;;;;;2557209;56;1435;-84
2021/06/13 07:51:40;109031.00;0.36;189.16;0.00;0.00;0.62;;;;;34.90;1.00;;;;;;2564308;56;1104;-85
2021/06/13 07:54:07;231785.00;0.77;400.62;0.00;0.00;0.62;;;;;35.80;1.00;;;;;;2549010;56;2048;-84
2021/06/13 07:56:34;400047.00;1.33;689.89;83214.00;0.28;144.59;;;;;35.40;1.00;;;;;;2549547;56;1134;-85
2021/06/13 07:59:01;281637.00;0.94;486.35;40337.00;0.13;70.47;;;;;35.40;1.00;;;;;;2545672;56;1408;-85
2021/06/13 08:01:28;570189.00;1.90;982.77;166177.00;0.55;287.68;;;;;34.30;1.00;;;;;;2551130;56;1157;-84
2021/06/13 08:03:55;309948.00;1.03;535.02;0.00;0.00;0.62;;;;;33.50;1.00;;;;;;2564525;56;1125;-87
2021/06/13 08:06:23;504269.00;1.68;869.17;50218.00;0.17;87.56;;;;;32.80;1.00;;;;;;2565345;56;1111;-87
2021/06/13 08:08:52;282130.00;0.94;487.20;39294.00;0.13;68.67;;;;;32.40;1.00;;;;;;2555920;56;1352;-87
2021/06/13 08:11:19;366101.00;1.22;631.54;0.00;0.00;0.62;;;;;31.30;1.00;;;;;;2552714;56;1059;-87
2021/06/13 08:13:46;209733.00;0.70;362.68;0.00;0.00;0.62;;;;;30.70;1.00;;;;;;2556451;56;1954;-88
2021/06/13 08:16:13;352891.00;1.18;608.83;57402.00;0.19;99.99;;;;;31.30;1.00;;;;;;2556621;56;1084;-87
2021/06/13 08:18:40;614180.00;2.05;1058.71;103694.00;0.35;179.95;;;;;32.00;1.00;;;;;;2540174;56;1382;-84
2021/06/13 08:21:07;236319.00;0.79;408.42;0.00;0.00;0.62;;;;;32.90;1.00;;;;;;2538720;56;1142;-87
2021/06/13 08:23:35;181171.00;0.60;313.51;0.00;0.00;0.62;;;;;33.50;1.00;;;;;;2539873;56;1129;-86
2021/06/13 08:26:03;104497.00;0.35;181.33;0.00;0.00;0.62;;;;;32.90;1.00;;;;;;2530895;56;1131;-85
2021/06/13 08:28:30;229665.00;0.77;396.97;0.00;0.00;0.62;;;;;33.80;1.00;;;;;;2544809;56;1316;-86
2021/06/13 08:30:57;272845.00;0.91;471.24;0.00;0.00;0.62;;;;;33.80;1.00;;;;;;2550938;56;1035;-86
2021/06/13 08:33:25;477121.00;1.59;822.44;27095.00;0.09;47.55;;;;;33.30;1.00;;;;;;2544503;56;1952;-85
2021/06/13 08:35:53;604838.00;2.02;1042.57;74746.00;0.25;129.96;;;;;33.60;1.00;;;;;;2545605;56;1126;-87
2021/06/13 08:38:38;474331.00;1.58;817.64;125941.00;0.42;218.33;;;;;33.70;1.00;;;;;;2553270;56;1285;-84
2021/06/13 08:41:14;190594.00;0.64;329.73;73004.00;0.24;126.95;;;;;32.80;1.00;;;;;;2553403;56;1105;-87
2021/06/13 08:43:45;197061.00;0.66;340.86;70728.00;0.24;123.02;;;;;33.10;1.00;;;;;;2554011;56;1173;-85
2021/06/13 08:46:12;172222.00;0.57;298.09;0.00;0.00;0.62;;;;;34.10;1.00;;;;;;2549416;56;1235;-85
2021/06/13 08:48:42;483197.00;1.61;832.90;14489.00;0.05;25.73;;;;;34.10;1.00;;;;;;2549431;56;1418;-84
2021/06/13 08:51:09;111546.00;0.37;193.50;41992.00;0.14;73.33;;;;;33.80;1.00;;;;;;2560789;56;1109;-86
2021/06/13 08:53:36;470066.00;1.57;810.30;60757.00;0.20;105.79;;;;;33.50;1.00;;;;;;2567974;56;1929;-85
2021/06/13 08:56:07;301806.00;1.01;521.02;0.00;0.00;0.62;;;;;33.20;1.00;;;;;;2568589;56;1126;-87
2021/06/13 08:58:35;175880.00;0.59;304.39;0.00;0.00;0.62;;;;;32.80;1.00;;;;;;2567849;56;1379;-86
2021/06/13 09:01:22;248822.00;0.83;429.93;27955.00;0.09;49.04;;;;;32.80;1.00;;;;;;2569415;56;1168;-87
2021/06/13 09:03:51;130351.00;0.43;225.93;0.00;0.00;0.62;;;;;32.60;1.00;;;;;;2568710;56;1157;-87
2021/06/13 09:06:23;143431.00;0.48;248.49;0.00;0.00;0.62;;;;;31.90;1.00;;;;;;2564570;56;1127;-87
2021/06/13 09:08:51;181025.00;0.60;313.25;0.00;0.00;0.62;;;;;31.60;1.00;;;;;;2571667;55;1268;-86
2021/06/13 09:11:29;142623.00;0.48;247.09;0.00;0.00;0.62;;;;;31.10;1.00;;;;;;2578874;55;1145;-84
2021/06/13 09:14:11;152311.00;0.51;263.79;0.00;0.00;0.62;;;;;30.30;1.00;;;;;;2565207;55;1933;-84
2021/06/13 09:16:42;230702.00;0.77;398.76;55810.00;0.19;97.23;;;;;30.10;1.00;;;;;;2569840;56;1085;-86
2021/06/13 09:19:09;305242.00;1.02;526.93;0.00;0.00;0.62;;;;;30.80;1.00;;;;;;2560513;56;1406;-85
2021/06/13 09:21:38;0.00;0.00;0.62;0.00;0.00;0.62;;;;;31.00;1.00;;;;;;2564384;56;1112;-85
2021/06/13 09:24:22;226348.00;0.75;391.27;27216.00;0.09;47.76;;;;;31.00;1.00;;;;;;2560654;56;1183;-86
2021/06/13 09:26:52;156610.00;0.52;271.20;0.00;0.00;0.62;;;;;30.90;1.00;;;;;;2571573;56;1050;-86
2021/06/13 09:29:20;215515.00;0.72;372.63;0.00;0.00;0.62;;;;;30.10;1.00;;;;;;2568640;55;1387;-90
2021/06/13 09:34:24;27258.00;0.09;47.84;0.00;0.00;0.62;;;;;29.40;1.00;;;;;;2570012;56;1916;-87
2021/06/13 09:37:06;162839.00;0.54;281.93;0.00;0.00;0.62;;;;;29.80;1.00;;;;;;2565452;56;1111;-87
2021/06/13 09:39:33;323984.00;1.08;559.15;43115.00;0.14;75.28;;;;;29.90;1.00;;;;;;2565991;56;1430;-85
2021/06/13 09:42:14;141598.00;0.47;245.33;0.00;0.00;0.62;;;;;29.40;1.00;;;;;;2561059;56;1109;-86
2021/06/13 09:44:41;158439.00;0.53;274.35;0.00;0.00;0.62;;;;;29.00;1.00;;;;;;2566341;56;1070;-87
2021/06/13 09:47:18;177577.00;0.59;307.32;0.00;0.00;0.62;;;;;29.10;1.00;;;;;;2557624;56;1276;-86
2021/06/13 09:49:46;253378.00;0.84;437.76;45895.00;0.15;80.09;;;;;29.30;1.00;;;;;;2551918;56;1403;-86
2021/06/13 09:52:14;364236.00;1.21;628.33;149272.00;0.50;258.55;;;;;29.30;1.00;;;;;;2554978;56;1196;-84
2021/06/13 09:54:41;0.00;0.00;0.62;0.00;0.00;0.62;;;;;28.30;1.00;;;;;;2556386;56;1968;-85
2021/06/13 09:57:09;104817.00;0.35;181.89;0.00;0.00;0.62;;;;;27.80;1.00;;;;;;2568191;56;1109;-85
2021/06/13 09:59:36;145343.00;0.48;251.78;27631.00;0.09;48.48;;;;;27.10;1.00;;;;;;2570557;56;1330;-85
2021/06/13 10:02:06;85789.00;0.29;149.04;0.00;0.00;0.62;;;;;27.60;1.00;;;;;;2572702;55;1151;-85
2021/06/13 10:04:36;0.00;0.00;0.62;0.00;0.00;0.62;;;;;27.90;1.00;;;;;;2566955;56;971;-85
2021/06/13 10:07:25;87864.00;0.29;152.62;0.00;0.00;0.62;;;;;27.30;1.00;;;;;;2558315;56;1094;-88
2021/06/13 10:09:55;0.00;0.00;0.62;0.00;0.00;0.62;;;;;27.50;1.00;;;;;;2559565;56;1346;-86